createdAt,value
2022-12-01T00:00:29.422Z,94.92
2022-12-01T00:01:14.160Z,94.92
2022-12-01T00:01:59.641Z,94.92
2022-12-01T00:02:43.773Z,94.92
2022-12-01T00:03:29.203Z,94.92
2022-12-01T00:04:14.188Z,94.92
2022-12-01T00:05:00.362Z,94.92
2022-12-01T00:05:44.902Z,94.92
2022-12-01T00:06:29.857Z,94.92
2022-12-01T00:07:14.329Z,94.92
2022-12-01T00:08:00.140Z,94.92
2022-12-01T00:08:44.041Z,94.92
2022-12-01T00:09:29.978Z,94.92
2022-12-01T00:10:16.579Z,94.92
2022-12-01T00:10:59.691Z,94.92
2022-12-01T00:11:44.765Z,94.92
2022-12-01T00:12:29.078Z,94.92
2022-12-01T00:13:14.382Z,94.92
2022-12-01T00:13:59.959Z,94.92
2022-12-01T00:14:44.489Z,94.92
2022-12-01T00:15:31.252Z,94.92
2022-12-01T00:16:15.173Z,94.92
2022-12-01T00:17:01.680Z,94.92
2022-12-01T00:17:47.345Z,94.92
2022-12-01T00:18:30.975Z,94.92
2022-12-01T00:19:15.742Z,94.92
2022-12-01T00:20:01.471Z,94.92
2022-12-01T00:20:46.341Z,94.92
2022-12-01T00:21:32.881Z,94.92
2022-12-01T00:22:16.042Z,94.92
2022-12-01T00:23:03.255Z,94.92
2022-12-01T00:23:46.671Z,94.92
2022-12-01T00:24:32.720Z,94.92
2022-12-01T00:25:16.376Z,94.92
2022-12-01T00:26:02.154Z,94.92
2022-12-01T00:26:47.917Z,94.92
2022-12-01T00:27:32.774Z,94.92
2022-12-01T00:28:19.467Z,94.92
2022-12-01T00:29:04.524Z,94.92
2022-12-01T00:29:49.641Z,94.92
2022-12-01T00:30:36.215Z,94.92
2022-12-01T00:31:18.626Z,94.92
2022-12-01T00:32:03.690Z,94.92
2022-12-01T00:32:49.189Z,94.92
2022-12-01T00:33:33.737Z,94.92
2022-12-01T00:34:19.631Z,94.92
2022-12-01T00:35:04.194Z,94.92
2022-12-01T00:35:51.051Z,94.92
2022-12-01T00:36:35.085Z,94.92
2022-12-01T00:37:18.705Z,94.92
2022-12-01T00:38:04.386Z,94.92
2022-12-01T00:38:49.744Z,94.92
2022-12-01T00:39:34.308Z,94.92
2022-12-01T00:40:19.886Z,94.92
2022-12-01T00:41:05.420Z,94.92
2022-12-01T00:41:49.564Z,94.92
2022-12-01T00:42:35.183Z,94.92
2022-12-01T00:43:18.543Z,94.92
2022-12-01T00:44:05.165Z,94.92
2022-12-01T00:44:49.996Z,94.92
2022-12-01T00:45:35.386Z,94.92
2022-12-01T00:46:20.784Z,94.92
2022-12-01T00:47:06.100Z,94.92
2022-12-01T00:47:50.927Z,94.92
2022-12-01T00:48:36.000Z,94.92
2022-12-01T00:49:21.051Z,94.92
2022-12-01T00:50:06.979Z,94.92
2022-12-01T00:50:50.554Z,94.92
2022-12-01T00:51:36.417Z,94.92
2022-12-01T00:52:20.754Z,94.92
2022-12-01T00:53:06.139Z,94.92
2022-12-01T00:53:51.382Z,94.92
2022-12-01T00:54:36.436Z,94.92
2022-12-01T00:55:21.490Z,94.92
2022-12-01T00:56:06.567Z,94.92
2022-12-01T00:56:51.464Z,94.92
2022-12-01T00:57:36.481Z,94.92
2022-12-01T00:58:21.211Z,94.92
2022-12-01T00:59:06.672Z,94.92
2022-12-01T00:59:51.736Z,94.92
2022-12-01T01:00:36.890Z,94.92
2022-12-01T01:01:21.769Z,94.92
2022-12-01T01:02:06.428Z,94.92
2022-12-01T01:02:51.599Z,94.92
2022-12-01T01:03:37.737Z,94.92
2022-12-01T01:04:21.989Z,94.92
2022-12-01T01:05:07.612Z,94.92
2022-12-01T01:05:52.401Z,94.92
2022-12-01T01:06:37.054Z,94.92
2022-12-01T01:07:21.856Z,94.92
2022-12-01T01:08:07.744Z,94.92
2022-12-01T01:08:52.313Z,94.92
2022-12-01T01:09:37.565Z,94.92
2022-12-01T01:10:22.120Z,94.92
2022-12-01T01:11:07.747Z,94.92
2022-12-01T01:11:52.634Z,94.92
2022-12-01T01:12:37.899Z,94.92
2022-12-01T01:13:22.750Z,94.92
2022-12-01T01:14:07.824Z,94.92
2022-12-01T01:14:51.037Z,94.92
2022-12-01T01:15:37.815Z,94.92
2022-12-01T01:16:23.237Z,94.92
2022-12-01T01:17:08.224Z,94.92
2022-12-01T01:17:52.883Z,94.92
2022-12-01T01:18:38.764Z,94.92
2022-12-01T01:19:23.102Z,94.92
2022-12-01T01:20:08.562Z,94.92
2022-12-01T01:20:52.821Z,94.92
2022-12-01T01:21:38.570Z,94.92
2022-12-01T01:22:22.510Z,94.92
2022-12-01T01:23:08.099Z,94.92
2022-12-01T01:23:53.432Z,94.92
2022-12-01T01:24:38.491Z,94.92
2022-12-01T01:25:23.242Z,94.92
2022-12-01T01:26:07.585Z,94.92
2022-12-01T01:26:51.305Z,94.92
2022-12-01T01:27:36.294Z,94.92
2022-12-01T01:28:22.888Z,94.92
2022-12-01T01:29:06.162Z,94.92
2022-12-01T01:29:52.355Z,94.92
2022-12-01T01:30:37.646Z,94.92
2022-12-01T01:31:21.174Z,94.92
2022-12-01T01:32:06.597Z,94.92
2022-12-01T01:32:51.549Z,94.92
2022-12-01T01:33:36.715Z,94.92
2022-12-01T01:34:23.301Z,94.92
2022-12-01T01:35:07.229Z,94.92
2022-12-01T01:35:52.392Z,94.92
2022-12-01T01:36:39.212Z,94.92
2022-12-01T01:37:24.144Z,94.92
2022-12-01T01:38:09.714Z,94.92
2022-12-01T01:38:54.663Z,94.92
2022-12-01T01:39:38.242Z,94.92
2022-12-01T01:40:22.933Z,94.92
2022-12-01T01:41:08.618Z,94.92
2022-12-01T01:41:52.846Z,94.92
2022-12-01T01:42:37.803Z,94.92
2022-12-01T01:43:22.953Z,94.92
2022-12-01T01:44:07.929Z,94.92
2022-12-01T01:44:53.287Z,94.92
2022-12-01T01:45:39.881Z,94.92
2022-12-01T01:46:24.871Z,94.92
2022-12-01T01:47:09.611Z,94.92
2022-12-01T01:47:52.779Z,94.92
2022-12-01T01:48:39.799Z,94.92
2022-12-01T01:49:24.016Z,94.92
2022-12-01T01:50:10.927Z,94.92
2022-12-01T01:50:54.543Z,94.92
2022-12-01T01:51:38.386Z,94.92
2022-12-01T01:52:23.752Z,94.92
2022-12-01T01:53:09.373Z,94.92
2022-12-01T01:53:53.436Z,94.92
2022-12-01T01:54:39.314Z,94.92
2022-12-01T01:55:25.395Z,94.92
2022-12-01T01:56:09.157Z,94.92
2022-12-01T01:56:54.896Z,94.92
2022-12-01T01:57:39.342Z,94.92
2022-12-01T01:58:24.513Z,94.92
2022-12-01T01:59:09.689Z,94.92
2022-12-01T01:59:55.123Z,94.92
2022-12-01T02:00:39.766Z,94.92
2022-12-01T02:01:26.403Z,94.92
2022-12-01T02:02:10.007Z,94.92
2022-12-01T02:02:55.321Z,94.92
2022-12-01T02:03:39.482Z,94.92
2022-12-01T02:04:25.350Z,94.92
2022-12-01T02:05:09.202Z,94.92
2022-12-01T02:05:54.445Z,94.92
2022-12-01T02:06:39.538Z,94.92
2022-12-01T02:07:25.303Z,94.92
2022-12-01T02:08:11.386Z,94.92
2022-12-01T02:08:54.668Z,94.92
2022-12-01T02:09:40.482Z,94.92
2022-12-01T02:10:24.906Z,94.92
2022-12-01T02:11:10.583Z,94.92
2022-12-01T02:11:54.381Z,94.92
2022-12-01T02:12:38.928Z,94.92
2022-12-01T02:13:23.984Z,94.92
2022-12-01T02:14:08.837Z,94.92
2022-12-01T02:14:55.324Z,94.92
2022-12-01T02:15:40.176Z,94.92
2022-12-01T02:16:25.222Z,94.92
2022-12-01T02:17:09.814Z,94.92
2022-12-01T02:17:55.341Z,94.92
2022-12-01T02:18:38.762Z,94.92
2022-12-01T02:19:23.720Z,94.92
2022-12-01T02:20:08.702Z,94.92
2022-12-01T02:20:53.536Z,94.92
2022-12-01T02:21:39.346Z,94.92
2022-12-01T02:22:23.843Z,94.92
2022-12-01T02:23:08.707Z,94.92
2022-12-01T02:23:54.564Z,94.92
2022-12-01T02:24:38.704Z,94.92
2022-12-01T02:25:23.861Z,94.92
2022-12-01T02:26:08.813Z,94.92
2022-12-01T02:26:53.974Z,94.92
2022-12-01T02:27:38.649Z,94.92
2022-12-01T02:28:24.307Z,94.92
2022-12-01T02:29:09.040Z,94.92
2022-12-01T02:29:54.196Z,94.92
2022-12-01T02:30:38.985Z,94.92
2022-12-01T02:31:24.557Z,94.92
2022-12-01T02:32:09.165Z,94.92
2022-12-01T02:32:54.322Z,94.92
2022-12-01T02:33:39.376Z,94.92
2022-12-01T02:34:24.746Z,94.92
2022-12-01T02:35:10.251Z,94.92
2022-12-01T02:35:54.782Z,94.92
2022-12-01T02:36:39.818Z,94.92
2022-12-01T02:37:25.172Z,94.92
2022-12-01T02:38:10.366Z,94.92
2022-12-01T02:38:54.987Z,94.92
2022-12-01T02:39:39.976Z,94.92
2022-12-01T02:40:25.191Z,94.92
2022-12-01T02:41:10.374Z,94.92
2022-12-01T02:41:55.215Z,94.92
2022-12-01T02:42:40.678Z,94.92
2022-12-01T02:43:25.117Z,94.92
2022-12-01T02:44:10.694Z,94.92
2022-12-01T02:44:55.233Z,94.92
2022-12-01T02:45:40.116Z,94.92
2022-12-01T02:46:25.381Z,94.92
2022-12-01T02:47:11.326Z,94.92
2022-12-01T02:47:55.568Z,94.92
2022-12-01T02:48:41.245Z,94.92
2022-12-01T02:49:25.465Z,94.92
2022-12-01T02:50:11.660Z,94.92
2022-12-01T02:50:56.860Z,94.92
2022-12-01T02:51:42.327Z,94.92
2022-12-01T02:52:26.230Z,94.92
2022-12-01T02:53:10.867Z,94.92
2022-12-01T02:53:55.903Z,94.92
2022-12-01T02:54:41.576Z,94.92
2022-12-01T02:55:26.429Z,94.92
2022-12-01T02:56:11.791Z,94.92
2022-12-01T02:56:56.739Z,94.92
2022-12-01T02:57:42.003Z,94.92
2022-12-01T02:58:26.770Z,94.92
2022-12-01T02:59:11.606Z,94.92
2022-12-01T02:59:56.606Z,94.92
2022-12-01T03:00:41.437Z,94.92
2022-12-01T03:01:27.189Z,94.92
2022-12-01T03:02:11.733Z,94.92
2022-12-01T03:02:57.137Z,94.92
2022-12-01T03:03:41.551Z,94.92
2022-12-01T03:04:26.628Z,94.92
2022-12-01T03:05:11.789Z,94.92
2022-12-01T03:05:57.354Z,94.92
2022-12-01T03:06:42.077Z,94.92
2022-12-01T03:07:27.374Z,94.92
2022-12-01T03:08:12.078Z,94.92
2022-12-01T03:08:57.581Z,94.92
2022-12-01T03:09:43.725Z,94.92
2022-12-01T03:10:29.089Z,94.92
2022-12-01T03:11:12.778Z,94.92
2022-12-01T03:11:57.772Z,94.92
2022-12-01T03:12:43.749Z,94.92
2022-12-01T03:13:27.370Z,94.92
2022-12-01T03:14:13.375Z,94.92
2022-12-01T03:14:57.276Z,94.92
2022-12-01T03:15:42.406Z,94.92
2022-12-01T03:16:28.182Z,94.92
2022-12-01T03:17:12.868Z,94.92
2022-12-01T03:17:57.503Z,94.92
2022-12-01T03:18:43.078Z,94.92
2022-12-01T03:19:27.552Z,94.92
2022-12-01T03:20:13.513Z,94.92
2022-12-01T03:20:58.448Z,94.92
2022-12-01T03:21:42.806Z,94.92
2022-12-01T03:22:27.944Z,94.92
2022-12-01T03:23:13.202Z,94.92
2022-12-01T03:23:58.463Z,94.92
2022-12-01T03:24:43.212Z,94.92
2022-12-01T03:25:28.694Z,94.92
2022-12-01T03:26:13.637Z,94.92
2022-12-01T03:26:58.185Z,94.92
2022-12-01T03:28:00.546Z,94.92
2022-12-01T03:28:28.498Z,94.92
2022-12-01T03:29:13.345Z,94.92
2022-12-01T03:29:58.211Z,94.92
2022-12-01T03:30:43.370Z,94.92
2022-12-01T03:31:28.791Z,94.92
2022-12-01T03:32:13.192Z,94.92
2022-12-01T03:32:58.959Z,94.92
2022-12-01T03:33:45.071Z,94.92
2022-12-01T03:34:28.739Z,94.92
2022-12-01T03:35:14.635Z,94.92
2022-12-01T03:35:59.306Z,94.92
2022-12-01T03:36:44.946Z,94.92
2022-12-01T03:37:28.627Z,94.92
2022-12-01T03:38:14.567Z,94.92
2022-12-01T03:39:00.350Z,94.92
2022-12-01T03:39:45.675Z,94.92
2022-12-01T03:40:29.606Z,94.92
2022-12-01T03:41:15.692Z,94.92
2022-12-01T03:41:59.310Z,94.92
2022-12-01T03:42:44.777Z,94.92
2022-12-01T03:43:30.635Z,94.92
2022-12-01T03:44:14.913Z,94.92
2022-12-01T03:44:59.582Z,94.92
2022-12-01T03:45:44.793Z,94.92
2022-12-01T03:46:29.625Z,94.92
2022-12-01T03:47:14.733Z,94.92
2022-12-01T03:47:59.555Z,94.92
2022-12-01T03:48:45.577Z,94.92
2022-12-01T03:49:30.589Z,94.92
2022-12-01T03:50:17.095Z,94.92
2022-12-01T03:51:00.914Z,94.92
2022-12-01T03:51:45.767Z,94.92
2022-12-01T03:52:29.898Z,94.92
2022-12-01T03:53:15.191Z,94.92
2022-12-01T03:54:01.234Z,94.92
2022-12-01T03:54:47.028Z,94.92
2022-12-01T03:55:31.260Z,94.92
2022-12-01T03:56:15.896Z,94.92
2022-12-01T03:56:59.828Z,94.92
2022-12-01T03:57:45.903Z,94.92
2022-12-01T03:58:30.074Z,94.92
2022-12-01T03:59:15.912Z,94.92
2022-12-01T04:00:01.314Z,94.92
2022-12-01T04:00:45.532Z,94.92
2022-12-01T04:01:30.504Z,94.92
2022-12-01T04:02:15.735Z,94.92
2022-12-01T04:03:00.742Z,94.92
2022-12-01T04:03:46.067Z,94.92
2022-12-01T04:04:31.213Z,94.92
2022-12-01T04:05:18.917Z,94.92
2022-12-01T04:06:01.657Z,94.92
2022-12-01T04:06:45.715Z,94.92
2022-12-01T04:07:32.096Z,94.92
2022-12-01T04:08:17.537Z,94.92
2022-12-01T04:09:00.772Z,94.92
2022-12-01T04:09:46.424Z,94.92
2022-12-01T04:10:31.147Z,94.92
2022-12-01T04:11:17.123Z,94.92
2022-12-01T04:12:02.194Z,94.92
2022-12-01T04:12:47.268Z,94.92
2022-12-01T04:13:31.726Z,94.92
2022-12-01T04:14:16.956Z,94.92
2022-12-01T04:15:01.362Z,94.92
2022-12-01T04:15:46.688Z,94.92
2022-12-01T04:16:32.151Z,94.92
2022-12-01T04:17:16.036Z,94.92
2022-12-01T04:18:02.244Z,94.92
2022-12-01T04:18:46.355Z,94.92
2022-12-01T04:19:32.645Z,94.92
2022-12-01T04:20:17.198Z,94.92
2022-12-01T04:21:02.650Z,94.92
2022-12-01T04:21:47.916Z,94.92
2022-12-01T04:22:31.744Z,94.92
2022-12-01T04:23:17.121Z,94.92
2022-12-01T04:24:02.273Z,94.92
2022-12-01T04:24:46.707Z,94.92
2022-12-01T04:25:32.390Z,94.92
2022-12-01T04:26:17.648Z,94.92
2022-12-01T04:27:04.159Z,94.92
2022-12-01T04:27:49.181Z,94.92
2022-12-01T04:28:33.122Z,94.92
2022-12-01T04:29:18.167Z,94.92
2022-12-01T04:30:02.935Z,94.92
2022-12-01T04:30:47.162Z,94.92
2022-12-01T04:31:32.344Z,94.92
2022-12-01T04:32:17.371Z,94.92
2022-12-01T04:33:02.117Z,94.92
2022-12-01T04:33:47.485Z,94.92
2022-12-01T04:34:32.036Z,94.92
2022-12-01T04:35:18.106Z,94.92
2022-12-01T04:36:02.244Z,94.92
2022-12-01T04:36:47.503Z,94.92
2022-12-01T04:37:32.362Z,94.92
2022-12-01T04:38:17.645Z,94.92
2022-12-01T04:39:02.598Z,94.92
2022-12-01T04:39:47.920Z,94.92
2022-12-01T04:40:32.687Z,94.92
2022-12-01T04:41:17.862Z,94.92
2022-12-01T04:42:06.381Z,94.92
2022-12-01T04:42:49.300Z,94.92
2022-12-01T04:43:34.047Z,94.92
2022-12-01T04:44:18.382Z,94.92
2022-12-01T04:45:02.920Z,94.92
2022-12-01T04:45:47.986Z,94.92
2022-12-01T04:46:33.619Z,94.92
2022-12-01T04:47:19.113Z,94.92
2022-12-01T04:48:04.887Z,94.92
2022-12-01T04:48:50.346Z,94.92
2022-12-01T04:49:33.936Z,94.92
2022-12-01T04:50:21.436Z,94.92
2022-12-01T04:51:05.524Z,94.92
2022-12-01T04:51:48.634Z,94.92
2022-12-01T04:52:35.435Z,94.92
2022-12-01T04:53:18.639Z,94.92
2022-12-01T04:54:03.649Z,94.92
2022-12-01T04:54:48.753Z,94.92
2022-12-01T04:55:35.143Z,94.92
2022-12-01T04:56:19.517Z,94.92
2022-12-01T04:57:04.845Z,94.92
2022-12-01T04:57:50.825Z,94.92
2022-12-01T04:58:35.073Z,94.92
2022-12-01T04:59:20.021Z,94.92
2022-12-01T05:00:04.461Z,94.92
2022-12-01T05:00:51.188Z,94.92
2022-12-01T05:01:35.620Z,94.92
2022-12-01T05:02:20.516Z,94.92
2022-12-01T05:03:04.477Z,94.92
2022-12-01T05:03:50.901Z,94.92
2022-12-01T05:04:35.120Z,94.92
2022-12-01T05:05:20.364Z,94.92
2022-12-01T05:06:05.874Z,94.92
2022-12-01T05:06:50.476Z,94.92
2022-12-01T05:07:35.248Z,94.92
2022-12-01T05:08:19.877Z,94.92
2022-12-01T05:09:05.651Z,94.92
2022-12-01T05:09:50.180Z,94.92
2022-12-01T05:10:35.153Z,94.92
2022-12-01T05:11:22.248Z,94.92
2022-12-01T05:12:05.878Z,94.92
2022-12-01T05:12:50.006Z,94.92
2022-12-01T05:13:34.976Z,94.92
2022-12-01T05:14:20.431Z,94.92
2022-12-01T05:15:04.889Z,94.92
2022-12-01T05:15:50.048Z,94.92
2022-12-01T05:16:35.145Z,94.92
2022-12-01T05:17:20.144Z,94.92
2022-12-01T05:18:06.734Z,94.92
2022-12-01T05:18:51.110Z,94.92
2022-12-01T05:19:36.749Z,94.92
2022-12-01T05:20:20.806Z,94.92
2022-12-01T05:21:06.170Z,94.92
2022-12-01T05:21:50.797Z,94.92
2022-12-01T05:23:04.354Z,94.92
2022-12-01T05:23:21.942Z,94.92
2022-12-01T05:24:06.057Z,94.92
2022-12-01T05:24:51.835Z,94.92
2022-12-01T05:25:36.177Z,94.92
2022-12-01T05:26:21.328Z,94.92
2022-12-01T05:27:06.421Z,94.92
2022-12-01T05:27:52.873Z,94.92
2022-12-01T05:28:36.909Z,94.92
2022-12-01T05:29:23.499Z,94.92
2022-12-01T05:30:07.982Z,94.92
2022-12-01T05:30:51.504Z,94.92
2022-12-01T05:31:37.723Z,94.92
2022-12-01T05:32:21.602Z,94.92
2022-12-01T05:33:08.172Z,94.92
2022-12-01T05:33:53.434Z,94.92
2022-12-01T05:34:38.496Z,94.92
2022-12-01T05:35:22.556Z,94.92
2022-12-01T05:36:07.340Z,94.92
2022-12-01T05:36:52.503Z,94.92
2022-12-01T05:37:37.995Z,94.92
2022-12-01T05:38:23.066Z,94.92
2022-12-01T05:39:07.187Z,94.92
2022-12-01T05:39:52.653Z,94.92
2022-12-01T05:40:37.607Z,94.92
2022-12-01T05:41:23.391Z,94.92
2022-12-01T05:42:07.934Z,94.92
2022-12-01T05:42:52.798Z,94.92
2022-12-01T05:43:38.447Z,94.92
2022-12-01T05:44:25.044Z,94.92
2022-12-01T05:45:09.087Z,94.92
2022-12-01T05:45:53.568Z,94.92
2022-12-01T05:46:38.570Z,94.92
2022-12-01T05:47:24.781Z,94.92
2022-12-01T05:48:08.291Z,94.92
2022-12-01T05:48:52.817Z,94.92
2022-12-01T05:49:39.730Z,94.92
2022-12-01T05:50:23.982Z,94.92
2022-12-01T05:51:08.199Z,94.92
2022-12-01T05:51:53.999Z,94.92
2022-12-01T05:52:39.737Z,94.92
2022-12-01T05:53:23.792Z,94.92
2022-12-01T05:54:09.244Z,94.92
2022-12-01T05:54:53.584Z,94.92
2022-12-01T05:55:40.065Z,94.92
2022-12-01T05:56:26.046Z,94.92
2022-12-01T05:57:07.741Z,94.92
2022-12-01T05:57:52.878Z,94.92
2022-12-01T05:58:38.260Z,94.92
2022-12-01T05:59:22.989Z,94.92
2022-12-01T06:00:08.047Z,94.92
2022-12-01T06:00:53.209Z,94.92
2022-12-01T06:01:38.186Z,94.92
2022-12-01T06:02:25.615Z,94.92
2022-12-01T06:03:09.102Z,94.92
2022-12-01T06:03:55.289Z,94.92
2022-12-01T06:04:42.305Z,94.92
2022-12-01T06:05:26.136Z,94.92
2022-12-01T06:06:12.185Z,94.92
2022-12-01T06:06:54.785Z,94.92
2022-12-01T06:07:41.184Z,94.92
2022-12-01T06:08:25.922Z,94.92
2022-12-01T06:09:10.508Z,94.92
2022-12-01T06:09:54.296Z,94.92
2022-12-01T06:10:40.491Z,94.92
2022-12-01T06:11:24.827Z,94.92
2022-12-01T06:12:10.175Z,94.92
2022-12-01T06:12:55.787Z,94.92
2022-12-01T06:13:41.021Z,94.92
2022-12-01T06:14:26.083Z,94.92
2022-12-01T06:15:10.552Z,94.92
2022-12-01T06:15:55.564Z,94.92
2022-12-01T06:16:41.728Z,94.92
2022-12-01T06:17:27.218Z,94.92
2022-12-01T06:18:11.661Z,94.92
2022-12-01T06:18:57.745Z,94.92
2022-12-01T06:19:39.420Z,94.92
2022-12-01T06:20:24.264Z,94.92
2022-12-01T06:21:09.527Z,94.92
2022-12-01T06:21:54.478Z,94.92
2022-12-01T06:22:40.147Z,94.92
2022-12-01T06:23:28.924Z,94.92
2022-12-01T06:24:09.651Z,94.92
2022-12-01T06:24:54.499Z,94.92
2022-12-01T06:25:39.463Z,94.92
2022-12-01T06:26:24.822Z,94.92
2022-12-01T06:27:09.674Z,94.92
2022-12-01T06:27:54.788Z,94.92
2022-12-01T06:28:39.902Z,94.92
2022-12-01T06:29:25.055Z,94.92
2022-12-01T06:30:09.791Z,94.92
2022-12-01T06:30:57.937Z,94.92
2022-12-01T06:31:39.740Z,94.92
2022-12-01T06:32:25.037Z,94.92
2022-12-01T06:33:09.919Z,94.92
2022-12-01T06:33:55.175Z,94.92
2022-12-01T06:34:40.336Z,94.92
2022-12-01T06:35:24.979Z,94.92
2022-12-01T06:36:10.796Z,94.92
2022-12-01T06:36:55.081Z,94.92
2022-12-01T06:37:40.866Z,94.92
2022-12-01T06:38:25.444Z,94.92
2022-12-01T06:39:10.488Z,94.92
2022-12-01T06:39:55.537Z,94.92
2022-12-01T06:40:40.379Z,94.92
2022-12-01T06:41:25.637Z,94.92
2022-12-01T06:42:10.689Z,94.92
2022-12-01T06:42:55.658Z,94.92
2022-12-01T06:43:40.808Z,94.92
2022-12-01T06:44:25.757Z,94.92
2022-12-01T06:45:11.164Z,94.92
2022-12-01T06:46:00.945Z,96.98
2022-12-01T06:46:40.396Z,86.98
2022-12-01T06:47:25.682Z,84.98
2022-12-01T06:48:10.641Z,98.98
2022-12-01T06:48:55.691Z,81.98
2022-12-01T06:49:40.844Z,81.98
2022-12-01T06:50:25.706Z,95.98
2022-12-01T06:51:11.093Z,112.97
2022-12-01T06:51:55.918Z,105.97
2022-12-01T06:52:40.886Z,95.98
2022-12-01T06:53:25.835Z,88.97
2022-12-01T06:54:10.837Z,81.97
2022-12-01T06:54:55.935Z,94.98
2022-12-01T06:55:41.018Z,99.97
2022-12-01T06:56:26.257Z,91.98
2022-12-01T06:57:11.261Z,91.96
2022-12-01T06:57:56.060Z,92.96
2022-12-01T06:58:41.217Z,84.97
2022-12-01T06:59:25.883Z,99.96
2022-12-01T07:00:11.448Z,83.97
2022-12-01T07:00:56.322Z,71.98
2022-12-01T07:01:41.598Z,102.96
2022-12-01T07:02:26.636Z,169.96
2022-12-01T07:03:11.376Z,201.95
2022-12-01T07:03:56.454Z,153.96
2022-12-01T07:04:41.771Z,222.94
2022-12-01T07:05:26.523Z,272.93
2022-12-01T07:06:11.573Z,163.96
2022-12-01T07:06:57.043Z,298.93
2022-12-01T07:07:42.050Z,329.92
2022-12-01T07:08:27.566Z,162.96
2022-12-01T07:09:12.006Z,142.96
2022-12-01T07:09:57.265Z,133.97
2022-12-01T07:10:42.223Z,150.96
2022-12-01T07:11:27.073Z,130.97
2022-12-01T07:12:12.459Z,190.95
2022-12-01T07:12:57.207Z,271.93
2022-12-01T07:13:42.088Z,271.93
2022-12-01T07:14:27.321Z,132.95
2022-12-01T07:15:12.456Z,127.95
2022-12-01T07:15:57.109Z,122.95
2022-12-01T07:16:42.506Z,102.96
2022-12-01T07:17:27.664Z,132.95
2022-12-01T07:18:15.551Z,132.95
2022-12-01T07:18:57.637Z,322.92
2022-12-01T07:19:42.796Z,357.86
2022-12-01T07:20:28.119Z,264.90
2022-12-01T07:21:12.703Z,105.96
2022-12-01T07:21:57.764Z,106.96
2022-12-01T07:22:43.052Z,102.96
2022-12-01T07:23:27.844Z,100.96
2022-12-01T07:24:12.928Z,116.95
2022-12-01T07:24:58.322Z,112.96
2022-12-01T07:25:43.141Z,337.87
2022-12-01T07:26:28.011Z,349.86
2022-12-01T07:27:13.053Z,148.94
2022-12-01T07:27:58.212Z,99.96
2022-12-01T07:28:43.392Z,85.97
2022-12-01T07:29:28.973Z,82.97
2022-12-01T07:30:13.498Z,101.96
2022-12-01T07:30:58.578Z,97.96
2022-12-01T07:31:43.500Z,99.97
2022-12-01T07:32:28.567Z,97.98
2022-12-01T07:33:14.228Z,115.97
2022-12-01T07:33:59.279Z,160.96
2022-12-01T07:34:43.513Z,343.91
2022-12-01T07:35:28.882Z,324.92
2022-12-01T07:36:13.750Z,335.92
2022-12-01T07:36:58.581Z,132.97
2022-12-01T07:37:43.856Z,111.97
2022-12-01T07:38:28.706Z,148.94
2022-12-01T07:39:13.701Z,345.91
2022-12-01T07:39:58.813Z,342.83
2022-12-01T07:40:44.208Z,342.83
2022-12-01T07:41:28.931Z,327.92
2022-12-01T07:42:13.884Z,327.92
2022-12-01T07:42:59.235Z,111.97
2022-12-01T07:43:48.497Z,111.97
2022-12-01T07:44:29.657Z,111.97
2022-12-01T07:45:14.147Z,87.98
2022-12-01T07:45:59.492Z,83.98
2022-12-01T07:46:44.576Z,83.98
2022-12-01T07:47:29.801Z,83.98
2022-12-01T07:48:14.532Z,84.98
2022-12-01T07:48:59.639Z,144.96
2022-12-01T07:49:45.777Z,128.94
2022-12-01T07:50:29.806Z,128.94
2022-12-01T07:51:16.399Z,128.94
2022-12-01T07:51:59.630Z,147.96
2022-12-01T07:52:44.974Z,147.96
2022-12-01T07:53:29.850Z,94.98
2022-12-01T07:54:14.782Z,105.97
2022-12-01T07:55:00.037Z,105.97
2022-12-01T07:55:45.024Z,90.98
2022-12-01T07:56:30.356Z,90.98
2022-12-01T07:57:15.415Z,90.98
2022-12-01T07:58:00.166Z,90.98
2022-12-01T07:58:45.455Z,90.98
2022-12-01T07:59:30.476Z,90.98
2022-12-01T08:00:15.435Z,90.98
2022-12-01T08:01:00.394Z,90.98
2022-12-01T08:01:45.805Z,90.98
2022-12-01T08:02:30.888Z,90.98
2022-12-01T08:03:15.903Z,90.98
2022-12-01T08:04:01.231Z,90.98
2022-12-01T08:04:45.775Z,70.98
2022-12-01T08:05:30.872Z,82.98
2022-12-01T08:06:15.989Z,82.98
2022-12-01T08:07:01.087Z,82.98
2022-12-01T08:07:46.133Z,82.98
2022-12-01T08:08:31.411Z,82.98
2022-12-01T08:09:16.557Z,75.98
2022-12-01T08:10:01.212Z,142.96
2022-12-01T08:10:48.485Z,142.96
2022-12-01T08:11:31.292Z,114.97
2022-12-01T08:12:16.647Z,114.97
2022-12-01T08:13:01.189Z,101.97
2022-12-01T08:13:46.454Z,101.97
2022-12-01T08:15:16.876Z,101.97
2022-12-01T08:16:02.403Z,101.97
2022-12-01T08:16:46.573Z,101.97
2022-12-01T08:17:31.728Z,101.97
2022-12-01T08:18:17.098Z,101.97
2022-12-01T08:19:02.073Z,58.99
2022-12-01T08:19:46.906Z,85.98
2022-12-01T08:20:31.212Z,73.97
2022-12-01T08:21:16.923Z,108.96
2022-12-01T08:22:01.671Z,90.96
2022-12-01T08:22:47.193Z,90.96
2022-12-01T08:23:32.084Z,90.96
2022-12-01T08:24:16.829Z,90.98
2022-12-01T08:25:01.888Z,83.98
2022-12-01T08:25:46.991Z,87.98
2022-12-01T08:26:31.999Z,104.96
2022-12-01T08:27:16.852Z,127.95
2022-12-01T08:28:02.314Z,127.95
2022-12-01T08:28:48.222Z,127.95
2022-12-01T08:29:32.574Z,127.95
2022-12-01T08:30:18.240Z,127.95
2022-12-01T08:31:02.556Z,127.95
2022-12-01T08:31:47.707Z,127.95
2022-12-01T08:32:32.446Z,98.96
2022-12-01T08:33:17.202Z,88.97
2022-12-01T08:34:02.463Z,101.96
2022-12-01T08:34:52.977Z,173.93
2022-12-01T08:35:32.673Z,149.94
2022-12-01T08:36:18.172Z,122.95
2022-12-01T08:37:02.992Z,122.95
2022-12-01T08:37:48.152Z,122.95
2022-12-01T08:38:32.990Z,94.98
2022-12-01T08:39:18.210Z,91.98
2022-12-01T08:40:02.916Z,86.97
2022-12-01T08:40:47.973Z,79.97
2022-12-01T08:41:32.822Z,122.95
2022-12-01T08:42:18.568Z,122.95
2022-12-01T08:43:02.946Z,92.96
2022-12-01T08:43:59.356Z,92.96
2022-12-01T08:44:33.318Z,96.96
2022-12-01T08:45:18.443Z,91.96
2022-12-01T08:46:03.333Z,89.96
2022-12-01T08:46:48.491Z,88.97
2022-12-01T08:47:33.274Z,83.97
2022-12-01T08:48:18.505Z,86.97
2022-12-01T08:49:03.297Z,92.96
2022-12-01T08:49:48.474Z,104.96
2022-12-01T08:50:33.504Z,180.93
2022-12-01T08:51:18.783Z,325.87
2022-12-01T08:52:03.274Z,108.96
2022-12-01T08:52:48.742Z,115.98
2022-12-01T08:53:33.626Z,117.98
2022-12-01T08:54:18.854Z,116.98
2022-12-01T08:55:03.945Z,104.98
2022-12-01T08:55:48.922Z,97.98
2022-12-01T08:56:33.953Z,90.98
2022-12-01T08:57:19.049Z,93.98
2022-12-01T08:58:03.666Z,330.92
2022-12-01T08:58:49.323Z,342.91
2022-12-01T08:59:33.970Z,339.91
2022-12-01T09:00:19.410Z,240.94
2022-12-01T09:01:04.186Z,99.98
2022-12-01T09:01:49.326Z,98.98
2022-12-01T09:02:34.385Z,96.98
2022-12-01T09:03:19.734Z,88.98
2022-12-01T09:04:04.433Z,83.98
2022-12-01T09:04:49.265Z,83.98
2022-12-01T09:05:36.222Z,83.98
2022-12-01T09:06:20.628Z,83.98
2022-12-01T09:07:04.533Z,83.98
2022-12-01T09:07:49.983Z,83.98
2022-12-01T09:08:35.058Z,83.98
2022-12-01T09:09:20.325Z,83.98
2022-12-01T09:10:05.382Z,83.98
2022-12-01T09:10:50.539Z,83.98
2022-12-01T09:11:35.389Z,83.98
2022-12-01T09:12:19.748Z,76.98
2022-12-01T09:13:05.215Z,86.98
2022-12-01T09:13:54.538Z,86.98
2022-12-01T09:14:35.470Z,86.98
2022-12-01T09:15:20.395Z,95.98
2022-12-01T09:16:05.692Z,95.98
2022-12-01T09:16:50.589Z,95.98
2022-12-01T09:17:36.348Z,95.98
2022-12-01T09:18:20.690Z,95.98
2022-12-01T09:19:05.746Z,95.98
2022-12-01T09:19:50.499Z,79.98
2022-12-01T09:20:35.571Z,88.98
2022-12-01T09:21:20.811Z,88.98
2022-12-01T09:22:05.977Z,88.98
2022-12-01T09:22:50.721Z,15.95
2022-12-01T09:23:35.672Z,76.86
2022-12-01T09:24:20.833Z,91.98
2022-12-01T09:25:05.886Z,77.98
2022-12-01T09:25:50.843Z,66.98
2022-12-01T09:26:35.797Z,54.99
2022-12-01T09:27:21.586Z,54.99
2022-12-01T09:28:06.184Z,54.99
2022-12-01T09:28:51.679Z,54.99
2022-12-01T09:29:38.073Z,54.99
2022-12-01T09:30:21.451Z,54.99
2022-12-01T09:31:09.096Z,54.99
2022-12-01T09:31:51.335Z,54.99
2022-12-01T09:32:37.994Z,54.99
2022-12-01T09:33:21.637Z,54.99
2022-12-01T09:34:06.179Z,69.97
2022-12-01T09:34:52.028Z,78.97
2022-12-01T09:35:36.163Z,70.97
2022-12-01T09:36:21.465Z,72.97
2022-12-01T09:37:06.483Z,71.97
2022-12-01T09:37:51.953Z,71.97
2022-12-01T09:38:36.591Z,66.97